sensor_id;sensor_type;location;lat;lon;timestamp;P1;durP1;ratioP1;P2;durP2;ratioP2
43664;SDS011;29263;48.172;11.484;2022-12-10T00:00:36;36.40;;;19.87;;
43664;SDS011;29263;48.172;11.484;2022-12-10T00:03:02;36.17;;;18.77;;
43664;SDS011;29263;48.172;11.484;2022-12-10T00:05:28;36.70;;;18.97;;
43664;SDS011;29263;48.172;11.484;2022-12-10T00:07:54;37.83;;;18.83;;
43664;SDS011;29263;48.172;11.484;2022-12-10T00:10:19;32.63;;;17.83;;
43664;SDS011;29263;48.172;11.484;2022-12-10T00:12:45;38.27;;;18.87;;
43664;SDS011;29263;48.172;11.484;2022-12-10T00:15:10;36.57;;;19.17;;
43664;SDS011;29263;48.172;11.484;2022-12-10T00:17:36;41.73;;;20.50;;
43664;SDS011;29263;48.172;11.484;2022-12-10T00:20:02;36.77;;;20.57;;
43664;SDS011;29263;48.172;11.484;2022-12-10T00:22:27;36.10;;;19.57;;
43664;SDS011;29263;48.172;11.484;2022-12-10T00:24:53;35.93;;;19.27;;
43664;SDS011;29263;48.172;11.484;2022-12-10T00:27:19;38.27;;;19.10;;
43664;SDS011;29263;48.172;11.484;2022-12-10T00:29:44;35.97;;;19.03;;
43664;SDS011;29263;48.172;11.484;2022-12-10T00:32:10;38.40;;;20.73;;
43664;SDS011;29263;48.172;11.484;2022-12-10T00:34:35;41.27;;;20.37;;
43664;SDS011;29263;48.172;11.484;2022-12-10T00:37:01;33.93;;;18.63;;
43664;SDS011;29263;48.172;11.484;2022-12-10T00:39:27;38.37;;;18.83;;
43664;SDS011;29263;48.172;11.484;2022-12-10T00:41:52;32.03;;;17.87;;
43664;SDS011;29263;48.172;11.484;2022-12-10T00:44:18;38.77;;;20.33;;
43664;SDS011;29263;48.172;11.484;2022-12-10T00:46:43;37.30;;;19.53;;
43664;SDS011;29263;48.172;11.484;2022-12-10T00:49:09;35.53;;;17.97;;
43664;SDS011;29263;48.172;11.484;2022-12-10T00:51:35;35.70;;;18.83;;
43664;SDS011;29263;48.172;11.484;2022-12-10T00:54:01;37.97;;;19.87;;
43664;SDS011;29263;48.172;11.484;2022-12-10T00:56:29;31.00;;;18.10;;
43664;SDS011;29263;48.172;11.484;2022-12-10T00:58:56;34.58;;;18.95;;
43664;SDS011;29263;48.172;11.484;2022-12-10T01:03:49;34.60;;;17.60;;
43664;SDS011;29263;48.172;11.484;2022-12-10T01:08:47;38.20;;;19.40;;
43664;SDS011;29263;48.172;11.484;2022-12-10T01:11:14;34.67;;;17.77;;
43664;SDS011;29263;48.172;11.484;2022-12-10T01:13:42;39.40;;;20.20;;
43664;SDS011;29263;48.172;11.484;2022-12-10T01:16:09;35.57;;;17.97;;
43664;SDS011;29263;48.172;11.484;2022-12-10T01:18:36;37.50;;;18.83;;
43664;SDS011;29263;48.172;11.484;2022-12-10T01:21:02;33.83;;;18.10;;
43664;SDS011;29263;48.172;11.484;2022-12-10T01:23:31;34.97;;;17.93;;
43664;SDS011;29263;48.172;11.484;2022-12-10T01:26:01;36.70;;;18.33;;
43664;SDS011;29263;48.172;11.484;2022-12-10T01:28:29;40.53;;;19.23;;
43664;SDS011;29263;48.172;11.484;2022-12-10T01:30:58;36.73;;;18.23;;
43664;SDS011;29263;48.172;11.484;2022-12-10T01:33:29;33.07;;;17.47;;
43664;SDS011;29263;48.172;11.484;2022-12-10T01:35:55;36.20;;;18.27;;
43664;SDS011;29263;48.172;11.484;2022-12-10T01:38:20;38.97;;;18.60;;
43664;SDS011;29263;48.172;11.484;2022-12-10T01:40:47;36.87;;;18.20;;
43664;SDS011;29263;48.172;11.484;2022-12-10T01:43:13;35.93;;;16.87;;
43664;SDS011;29263;48.172;11.484;2022-12-10T01:45:39;37.97;;;18.17;;
43664;SDS011;29263;48.172;11.484;2022-12-10T01:48:05;34.73;;;16.77;;
43664;SDS011;29263;48.172;11.484;2022-12-10T01:50:31;39.63;;;18.23;;
43664;SDS011;29263;48.172;11.484;2022-12-10T01:52:57;34.33;;;17.70;;
43664;SDS011;29263;48.172;11.484;2022-12-10T01:58:08;40.37;;;18.60;;
43664;SDS011;29263;48.172;11.484;2022-12-10T02:00:37;40.47;;;18.03;;
43664;SDS011;29263;48.172;11.484;2022-12-10T02:03:11;37.13;;;17.60;;
43664;SDS011;29263;48.172;11.484;2022-12-10T02:05:44;37.13;;;16.83;;
43664;SDS011;29263;48.172;11.484;2022-12-10T02:08:35;32.47;;;17.43;;
43664;SDS011;29263;48.172;11.484;2022-12-10T02:13:45;34.63;;;17.80;;
43664;SDS011;29263;48.172;11.484;2022-12-10T02:16:26;34.90;;;16.60;;
43664;SDS011;29263;48.172;11.484;2022-12-10T02:22:05;31.77;;;17.27;;
43664;SDS011;29263;48.172;11.484;2022-12-10T02:24:33;31.50;;;15.33;;
43664;SDS011;29263;48.172;11.484;2022-12-10T02:27:11;31.03;;;17.30;;
43664;SDS011;29263;48.172;11.484;2022-12-10T02:30:00;30.17;;;15.55;;
43664;SDS011;29263;48.172;11.484;2022-12-10T02:32:29;29.77;;;16.20;;
43664;SDS011;29263;48.172;11.484;2022-12-10T02:34:59;29.57;;;16.17;;
43664;SDS011;29263;48.172;11.484;2022-12-10T02:37:33;28.87;;;15.47;;
43664;SDS011;29263;48.172;11.484;2022-12-10T02:40:05;31.87;;;15.47;;
43664;SDS011;29263;48.172;11.484;2022-12-10T02:42:37;31.13;;;15.77;;
43664;SDS011;29263;48.172;11.484;2022-12-10T02:45:05;27.97;;;16.20;;
43664;SDS011;29263;48.172;11.484;2022-12-10T02:47:32;30.17;;;16.40;;
43664;SDS011;29263;48.172;11.484;2022-12-10T02:49:57;27.03;;;15.23;;
43664;SDS011;29263;48.172;11.484;2022-12-10T02:52:24;27.77;;;15.53;;
43664;SDS011;29263;48.172;11.484;2022-12-10T02:54:50;27.73;;;15.83;;
43664;SDS011;29263;48.172;11.484;2022-12-10T03:00:16;31.10;;;16.67;;
43664;SDS011;29263;48.172;11.484;2022-12-10T03:05:34;37.83;;;17.50;;
43664;SDS011;29263;48.172;11.484;2022-12-10T03:13:10;31.77;;;16.90;;
43664;SDS011;29263;48.172;11.484;2022-12-10T03:15:38;35.22;;;16.83;;
43664;SDS011;29263;48.172;11.484;2022-12-10T03:18:06;34.93;;;17.87;;
43664;SDS011;29263;48.172;11.484;2022-12-10T03:20:34;34.67;;;17.83;;
43664;SDS011;29263;48.172;11.484;2022-12-10T03:23:04;34.90;;;18.77;;
43664;SDS011;29263;48.172;11.484;2022-12-10T03:25:34;36.80;;;19.37;;
43664;SDS011;29263;48.172;11.484;2022-12-10T03:28:02;35.37;;;18.20;;
43664;SDS011;29263;48.172;11.484;2022-12-10T03:30:29;35.73;;;18.73;;
43664;SDS011;29263;48.172;11.484;2022-12-10T03:32:57;39.45;;;19.40;;
43664;SDS011;29263;48.172;11.484;2022-12-10T03:35:24;35.40;;;18.37;;
43664;SDS011;29263;48.172;11.484;2022-12-10T03:37:50;32.50;;;17.60;;
43664;SDS011;29263;48.172;11.484;2022-12-10T03:40:17;32.90;;;17.50;;
43664;SDS011;29263;48.172;11.484;2022-12-10T03:42:46;34.60;;;18.10;;
43664;SDS011;29263;48.172;11.484;2022-12-10T03:45:12;34.10;;;17.33;;
43664;SDS011;29263;48.172;11.484;2022-12-10T03:47:38;35.43;;;18.17;;
43664;SDS011;29263;48.172;11.484;2022-12-10T03:50:04;37.53;;;18.13;;
43664;SDS011;29263;48.172;11.484;2022-12-10T03:52:30;35.53;;;18.00;;
43664;SDS011;29263;48.172;11.484;2022-12-10T03:54:56;35.67;;;18.37;;
43664;SDS011;29263;48.172;11.484;2022-12-10T03:57:21;35.00;;;17.60;;
43664;SDS011;29263;48.172;11.484;2022-12-10T03:59:47;37.70;;;19.17;;
43664;SDS011;29263;48.172;11.484;2022-12-10T04:02:13;33.60;;;17.70;;
43664;SDS011;29263;48.172;11.484;2022-12-10T04:04:38;34.83;;;18.30;;
43664;SDS011;29263;48.172;11.484;2022-12-10T04:07:04;34.87;;;17.97;;
43664;SDS011;29263;48.172;11.484;2022-12-10T04:09:29;32.87;;;17.93;;
43664;SDS011;29263;48.172;11.484;2022-12-10T04:11:58;34.43;;;17.27;;
43664;SDS011;29263;48.172;11.484;2022-12-10T04:14:25;30.27;;;16.75;;
43664;SDS011;29263;48.172;11.484;2022-12-10T04:17:11;37.77;;;19.23;;
43664;SDS011;29263;48.172;11.484;2022-12-10T04:19:37;35.43;;;18.00;;
43664;SDS011;29263;48.172;11.484;2022-12-10T04:22:03;32.17;;;17.17;;
43664;SDS011;29263;48.172;11.484;2022-12-10T04:24:47;32.57;;;17.87;;
43664;SDS011;29263;48.172;11.484;2022-12-10T04:27:33;30.33;;;16.20;;
43664;SDS011;29263;48.172;11.484;2022-12-10T04:30:02;27.57;;;15.83;;
43664;SDS011;29263;48.172;11.484;2022-12-10T04:32:31;30.95;;;17.85;;
43664;SDS011;29263;48.172;11.484;2022-12-10T04:34:56;28.87;;;15.90;;
43664;SDS011;29263;48.172;11.484;2022-12-10T04:37:22;31.83;;;17.10;;
43664;SDS011;29263;48.172;11.484;2022-12-10T04:39:49;29.47;;;16.33;;
43664;SDS011;29263;48.172;11.484;2022-12-10T04:42:15;28.63;;;16.17;;
43664;SDS011;29263;48.172;11.484;2022-12-10T04:44:41;33.27;;;15.07;;
43664;SDS011;29263;48.172;11.484;2022-12-10T04:47:07;30.17;;;17.47;;
43664;SDS011;29263;48.172;11.484;2022-12-10T04:49:34;30.37;;;17.47;;
43664;SDS011;29263;48.172;11.484;2022-12-10T04:52:00;30.07;;;17.43;;
43664;SDS011;29263;48.172;11.484;2022-12-10T04:54:26;30.47;;;16.83;;
43664;SDS011;29263;48.172;11.484;2022-12-10T04:56:52;27.33;;;16.00;;
43664;SDS011;29263;48.172;11.484;2022-12-10T04:59:18;27.83;;;15.53;;
43664;SDS011;29263;48.172;11.484;2022-12-10T05:01:44;37.23;;;17.70;;
43664;SDS011;29263;48.172;11.484;2022-12-10T05:04:11;30.23;;;15.63;;
43664;SDS011;29263;48.172;11.484;2022-12-10T05:06:38;29.30;;;16.83;;
43664;SDS011;29263;48.172;11.484;2022-12-10T05:09:04;29.10;;;16.33;;
43664;SDS011;29263;48.172;11.484;2022-12-10T05:11:30;33.57;;;17.50;;
43664;SDS011;29263;48.172;11.484;2022-12-10T05:13:56;31.70;;;17.57;;
43664;SDS011;29263;48.172;11.484;2022-12-10T05:16:24;28.57;;;15.90;;
43664;SDS011;29263;48.172;11.484;2022-12-10T05:18:52;27.93;;;15.83;;
43664;SDS011;29263;48.172;11.484;2022-12-10T05:21:19;30.07;;;16.33;;
43664;SDS011;29263;48.172;11.484;2022-12-10T05:23:47;29.03;;;15.47;;
43664;SDS011;29263;48.172;11.484;2022-12-10T05:26:18;31.87;;;16.57;;
43664;SDS011;29263;48.172;11.484;2022-12-10T05:28:51;29.83;;;16.13;;
43664;SDS011;29263;48.172;11.484;2022-12-10T05:31:28;31.13;;;17.15;;
43664;SDS011;29263;48.172;11.484;2022-12-10T05:33:55;30.63;;;16.37;;
43664;SDS011;29263;48.172;11.484;2022-12-10T05:36:22;31.23;;;16.60;;
43664;SDS011;29263;48.172;11.484;2022-12-10T05:38:50;33.70;;;16.97;;
43664;SDS011;29263;48.172;11.484;2022-12-10T05:41:19;31.83;;;17.17;;
43664;SDS011;29263;48.172;11.484;2022-12-10T05:43:47;32.43;;;16.90;;
43664;SDS011;29263;48.172;11.484;2022-12-10T05:46:17;28.40;;;17.13;;
43664;SDS011;29263;48.172;11.484;2022-12-10T05:48:44;30.23;;;17.37;;
43664;SDS011;29263;48.172;11.484;2022-12-10T05:51:13;31.10;;;17.27;;
43664;SDS011;29263;48.172;11.484;2022-12-10T05:53:41;32.77;;;17.87;;
43664;SDS011;29263;48.172;11.484;2022-12-10T05:56:08;28.17;;;16.40;;
43664;SDS011;29263;48.172;11.484;2022-12-10T05:58:39;31.17;;;17.17;;
43664;SDS011;29263;48.172;11.484;2022-12-10T06:01:07;32.83;;;17.93;;
43664;SDS011;29263;48.172;11.484;2022-12-10T06:03:34;30.57;;;17.57;;
43664;SDS011;29263;48.172;11.484;2022-12-10T06:05:59;32.53;;;16.67;;
43664;SDS011;29263;48.172;11.484;2022-12-10T06:08:25;36.70;;;17.57;;
43664;SDS011;29263;48.172;11.484;2022-12-10T06:10:51;31.33;;;17.07;;
43664;SDS011;29263;48.172;11.484;2022-12-10T06:13:16;31.77;;;17.57;;
43664;SDS011;29263;48.172;11.484;2022-12-10T06:15:42;28.10;;;16.73;;
43664;SDS011;29263;48.172;11.484;2022-12-10T06:18:08;30.17;;;16.50;;
43664;SDS011;29263;48.172;11.484;2022-12-10T06:20:37;31.17;;;17.00;;
43664;SDS011;29263;48.172;11.484;2022-12-10T06:23:03;33.63;;;17.35;;
43664;SDS011;29263;48.172;11.484;2022-12-10T06:25:29;30.77;;;15.87;;
43664;SDS011;29263;48.172;11.484;2022-12-10T06:27:55;28.27;;;16.33;;
43664;SDS011;29263;48.172;11.484;2022-12-10T06:30:20;30.83;;;16.13;;
43664;SDS011;29263;48.172;11.484;2022-12-10T06:32:46;33.27;;;17.43;;
43664;SDS011;29263;48.172;11.484;2022-12-10T06:35:11;32.17;;;16.93;;
43664;SDS011;29263;48.172;11.484;2022-12-10T06:37:37;27.23;;;16.03;;
43664;SDS011;29263;48.172;11.484;2022-12-10T06:40:03;27.40;;;15.50;;
43664;SDS011;29263;48.172;11.484;2022-12-10T06:42:29;32.17;;;17.80;;
43664;SDS011;29263;48.172;11.484;2022-12-10T06:44:55;27.30;;;15.43;;
43664;SDS011;29263;48.172;11.484;2022-12-10T06:47:21;34.80;;;16.93;;
43664;SDS011;29263;48.172;11.484;2022-12-10T06:49:47;29.03;;;16.43;;
43664;SDS011;29263;48.172;11.484;2022-12-10T06:52:13;28.57;;;15.70;;
43664;SDS011;29263;48.172;11.484;2022-12-10T06:54:39;26.43;;;15.23;;
43664;SDS011;29263;48.172;11.484;2022-12-10T06:57:04;31.97;;;17.13;;
43664;SDS011;29263;48.172;11.484;2022-12-10T06:59:30;25.77;;;14.90;;
43664;SDS011;29263;48.172;11.484;2022-12-10T07:01:56;28.03;;;15.13;;
43664;SDS011;29263;48.172;11.484;2022-12-10T07:04:22;28.97;;;16.60;;
43664;SDS011;29263;48.172;11.484;2022-12-10T07:06:47;26.27;;;14.10;;
43664;SDS011;29263;48.172;11.484;2022-12-10T07:09:13;27.37;;;15.73;;
43664;SDS011;29263;48.172;11.484;2022-12-10T07:11:39;28.10;;;15.50;;
43664;SDS011;29263;48.172;11.484;2022-12-10T07:14:04;27.30;;;15.00;;
43664;SDS011;29263;48.172;11.484;2022-12-10T07:16:31;28.10;;;15.10;;
43664;SDS011;29263;48.172;11.484;2022-12-10T07:18:58;26.23;;;15.13;;
43664;SDS011;29263;48.172;11.484;2022-12-10T07:21:26;28.80;;;16.60;;
43664;SDS011;29263;48.172;11.484;2022-12-10T07:23:52;27.03;;;15.67;;
43664;SDS011;29263;48.172;11.484;2022-12-10T07:26:22;27.20;;;14.40;;
43664;SDS011;29263;48.172;11.484;2022-12-10T07:28:59;28.07;;;14.73;;
43664;SDS011;29263;48.172;11.484;2022-12-10T07:31:25;27.83;;;15.60;;
43664;SDS011;29263;48.172;11.484;2022-12-10T07:33:52;24.60;;;14.57;;
43664;SDS011;29263;48.172;11.484;2022-12-10T07:36:19;27.83;;;15.37;;
43664;SDS011;29263;48.172;11.484;2022-12-10T07:38:47;25.40;;;14.65;;
43664;SDS011;29263;48.172;11.484;2022-12-10T07:41:13;26.60;;;14.23;;
43664;SDS011;29263;48.172;11.484;2022-12-10T07:43:40;28.70;;;15.37;;
43664;SDS011;29263;48.172;11.484;2022-12-10T07:46:11;25.87;;;14.83;;
43664;SDS011;29263;48.172;11.484;2022-12-10T07:48:43;26.00;;;14.77;;
43664;SDS011;29263;48.172;11.484;2022-12-10T07:51:09;26.10;;;14.13;;
43664;SDS011;29263;48.172;11.484;2022-12-10T07:53:36;28.77;;;16.03;;
43664;SDS011;29263;48.172;11.484;2022-12-10T07:56:02;28.50;;;15.07;;
43664;SDS011;29263;48.172;11.484;2022-12-10T07:58:28;26.40;;;15.43;;
43664;SDS011;29263;48.172;11.484;2022-12-10T08:00:53;27.77;;;15.83;;
43664;SDS011;29263;48.172;11.484;2022-12-10T08:03:19;28.37;;;16.33;;
43664;SDS011;29263;48.172;11.484;2022-12-10T08:05:45;29.70;;;16.40;;
43664;SDS011;29263;48.172;11.484;2022-12-10T08:08:10;27.90;;;16.37;;
43664;SDS011;29263;48.172;11.484;2022-12-10T08:10:36;29.23;;;16.70;;
43664;SDS011;29263;48.172;11.484;2022-12-10T08:13:03;29.43;;;16.50;;
43664;SDS011;29263;48.172;11.484;2022-12-10T08:15:30;35.27;;;17.47;;
43664;SDS011;29263;48.172;11.484;2022-12-10T08:17:56;31.53;;;17.63;;
43664;SDS011;29263;48.172;11.484;2022-12-10T08:20:22;32.03;;;17.33;;
43664;SDS011;29263;48.172;11.484;2022-12-10T08:22:48;30.70;;;17.57;;
43664;SDS011;29263;48.172;11.484;2022-12-10T08:25:14;32.20;;;17.50;;
43664;SDS011;29263;48.172;11.484;2022-12-10T08:27:39;33.17;;;17.43;;
43664;SDS011;29263;48.172;11.484;2022-12-10T08:30:05;37.00;;;19.07;;
43664;SDS011;29263;48.172;11.484;2022-12-10T08:32:31;33.63;;;17.70;;
43664;SDS011;29263;48.172;11.484;2022-12-10T08:34:57;31.47;;;17.43;;
43664;SDS011;29263;48.172;11.484;2022-12-10T08:37:22;30.53;;;16.87;;
43664;SDS011;29263;48.172;11.484;2022-12-10T08:39:48;30.97;;;17.73;;
43664;SDS011;29263;48.172;11.484;2022-12-10T08:42:14;27.90;;;16.23;;
43664;SDS011;29263;48.172;11.484;2022-12-10T08:44:40;30.80;;;17.00;;
43664;SDS011;29263;48.172;11.484;2022-12-10T08:47:05;31.43;;;17.07;;
43664;SDS011;29263;48.172;11.484;2022-12-10T08:49:31;34.73;;;18.43;;
43664;SDS011;29263;48.172;11.484;2022-12-10T08:51:57;34.50;;;17.00;;
43664;SDS011;29263;48.172;11.484;2022-12-10T08:54:22;35.73;;;17.83;;
43664;SDS011;29263;48.172;11.484;2022-12-10T08:56:48;32.97;;;19.10;;
43664;SDS011;29263;48.172;11.484;2022-12-10T08:59:14;31.53;;;18.27;;
43664;SDS011;29263;48.172;11.484;2022-12-10T09:01:39;33.97;;;18.20;;
43664;SDS011;29263;48.172;11.484;2022-12-10T09:04:05;31.97;;;17.70;;
43664;SDS011;29263;48.172;11.484;2022-12-10T09:06:31;33.40;;;16.93;;
43664;SDS011;29263;48.172;11.484;2022-12-10T09:08:56;33.70;;;18.03;;
43664;SDS011;29263;48.172;11.484;2022-12-10T09:11:26;33.20;;;17.87;;
43664;SDS011;29263;48.172;11.484;2022-12-10T09:13:57;29.40;;;16.00;;
43664;SDS011;29263;48.172;11.484;2022-12-10T09:16:33;27.60;;;15.70;;
43664;SDS011;29263;48.172;11.484;2022-12-10T09:19:00;32.87;;;17.57;;
43664;SDS011;29263;48.172;11.484;2022-12-10T09:21:27;29.83;;;16.87;;
43664;SDS011;29263;48.172;11.484;2022-12-10T09:23:53;34.50;;;17.90;;
43664;SDS011;29263;48.172;11.484;2022-12-10T09:26:19;30.97;;;16.27;;
43664;SDS011;29263;48.172;11.484;2022-12-10T09:28:45;34.13;;;17.33;;
43664;SDS011;29263;48.172;11.484;2022-12-10T09:31:12;34.57;;;17.20;;
43664;SDS011;29263;48.172;11.484;2022-12-10T09:33:38;33.37;;;17.83;;
43664;SDS011;29263;48.172;11.484;2022-12-10T09:36:05;31.17;;;17.03;;
43664;SDS011;29263;48.172;11.484;2022-12-10T09:38:39;32.20;;;16.90;;
43664;SDS011;29263;48.172;11.484;2022-12-10T09:49:39;30.67;;;17.13;;
43664;SDS011;29263;48.172;11.484;2022-12-10T09:52:19;34.30;;;17.77;;
43664;SDS011;29263;48.172;11.484;2022-12-10T09:57:22;31.83;;;17.10;;
43664;SDS011;29263;48.172;11.484;2022-12-10T09:59:55;27.53;;;15.13;;
43664;SDS011;29263;48.172;11.484;2022-12-10T10:04:48;30.40;;;15.53;;
43664;SDS011;29263;48.172;11.484;2022-12-10T10:07:24;36.40;;;18.17;;
43664;SDS011;29263;48.172;11.484;2022-12-10T10:09:55;32.70;;;17.33;;
43664;SDS011;29263;48.172;11.484;2022-12-10T10:12:23;33.87;;;16.07;;
43664;SDS011;29263;48.172;11.484;2022-12-10T10:14:51;33.67;;;17.57;;
43664;SDS011;29263;48.172;11.484;2022-12-10T10:17:19;33.57;;;16.70;;
43664;SDS011;29263;48.172;11.484;2022-12-10T10:19:54;29.60;;;16.20;;
43664;SDS011;29263;48.172;11.484;2022-12-10T10:22:19;32.60;;;17.23;;
43664;SDS011;29263;48.172;11.484;2022-12-10T10:24:45;29.83;;;16.20;;
43664;SDS011;29263;48.172;11.484;2022-12-10T10:27:13;36.07;;;17.13;;
43664;SDS011;29263;48.172;11.484;2022-12-10T10:29:41;28.75;;;15.48;;
43664;SDS011;29263;48.172;11.484;2022-12-10T10:32:18;31.50;;;15.90;;
43664;SDS011;29263;48.172;11.484;2022-12-10T10:34:46;31.33;;;16.47;;
43664;SDS011;29263;48.172;11.484;2022-12-10T10:37:20;32.13;;;17.03;;
43664;SDS011;29263;48.172;11.484;2022-12-10T10:42:21;30.77;;;16.07;;
43664;SDS011;29263;48.172;11.484;2022-12-10T10:45:37;28.93;;;16.27;;
43664;SDS011;29263;48.172;11.484;2022-12-10T10:48:17;28.50;;;16.10;;
43664;SDS011;29263;48.172;11.484;2022-12-10T10:50:49;29.30;;;16.33;;
43664;SDS011;29263;48.172;11.484;2022-12-10T10:53:47;30.50;;;16.67;;
43664;SDS011;29263;48.172;11.484;2022-12-10T10:56:18;30.23;;;16.73;;
43664;SDS011;29263;48.172;11.484;2022-12-10T11:01:45;29.87;;;16.50;;
43664;SDS011;29263;48.172;11.484;2022-12-10T11:04:13;31.50;;;17.27;;
43664;SDS011;29263;48.172;11.484;2022-12-10T11:06:41;27.77;;;16.03;;
43664;SDS011;29263;48.172;11.484;2022-12-10T11:09:08;28.00;;;15.50;;
43664;SDS011;29263;48.172;11.484;2022-12-10T11:11:42;31.20;;;15.67;;
43664;SDS011;29263;48.172;11.484;2022-12-10T11:14:25;27.07;;;16.63;;
43664;SDS011;29263;48.172;11.484;2022-12-10T11:22:30;28.60;;;16.42;;
43664;SDS011;29263;48.172;11.484;2022-12-10T11:24:58;32.83;;;16.03;;
43664;SDS011;29263;48.172;11.484;2022-12-10T11:30:15;29.93;;;16.17;;
43664;SDS011;29263;48.172;11.484;2022-12-10T11:33:03;30.83;;;16.53;;
43664;SDS011;29263;48.172;11.484;2022-12-10T11:36:00;31.10;;;16.40;;
43664;SDS011;29263;48.172;11.484;2022-12-10T11:38:47;35.60;;;18.73;;
43664;SDS011;29263;48.172;11.484;2022-12-10T11:41:25;29.70;;;16.50;;
43664;SDS011;29263;48.172;11.484;2022-12-10T11:49:40;33.87;;;17.30;;
43664;SDS011;29263;48.172;11.484;2022-12-10T11:55:20;29.00;;;15.23;;
43664;SDS011;29263;48.172;11.484;2022-12-10T12:00:33;27.53;;;16.10;;
43664;SDS011;29263;48.172;11.484;2022-12-10T12:09:08;32.53;;;18.87;;
43664;SDS011;29263;48.172;11.484;2022-12-10T12:11:48;37.87;;;19.13;;
43664;SDS011;29263;48.172;11.484;2022-12-10T12:14:26;31.10;;;16.03;;
43664;SDS011;29263;48.172;11.484;2022-12-10T12:17:16;29.80;;;16.33;;
43664;SDS011;29263;48.172;11.484;2022-12-10T12:19:46;31.13;;;16.57;;
43664;SDS011;29263;48.172;11.484;2022-12-10T12:24:59;31.07;;;16.77;;
43664;SDS011;29263;48.172;11.484;2022-12-10T12:27:41;29.50;;;16.83;;
43664;SDS011;29263;48.172;11.484;2022-12-10T12:30:16;30.27;;;17.63;;
43664;SDS011;29263;48.172;11.484;2022-12-10T12:41:00;30.17;;;16.60;;
43664;SDS011;29263;48.172;11.484;2022-12-10T12:46:35;30.77;;;17.03;;
43664;SDS011;29263;48.172;11.484;2022-12-10T12:49:13;30.47;;;16.77;;
43664;SDS011;29263;48.172;11.484;2022-12-10T12:52:24;31.27;;;17.30;;
43664;SDS011;29263;48.172;11.484;2022-12-10T12:55:03;31.57;;;16.47;;
43664;SDS011;29263;48.172;11.484;2022-12-10T12:57:45;32.72;;;17.02;;
43664;SDS011;29263;48.172;11.484;2022-12-10T13:00:18;36.57;;;18.90;;
43664;SDS011;29263;48.172;11.484;2022-12-10T13:02:59;43.03;;;21.93;;
43664;SDS011;29263;48.172;11.484;2022-12-10T13:05:44;42.37;;;21.97;;
43664;SDS011;29263;48.172;11.484;2022-12-10T13:13:35;41.47;;;21.77;;
43664;SDS011;29263;48.172;11.484;2022-12-10T13:22:03;36.17;;;19.50;;
43664;SDS011;29263;48.172;11.484;2022-12-10T13:27:03;43.63;;;22.77;;
43664;SDS011;29263;48.172;11.484;2022-12-10T13:40:24;31.83;;;17.53;;
43664;SDS011;29263;48.172;11.484;2022-12-10T13:48:50;31.83;;;17.37;;
43664;SDS011;29263;48.172;11.484;2022-12-10T13:54:01;32.57;;;18.73;;
43664;SDS011;29263;48.172;11.484;2022-12-10T13:59:28;33.50;;;17.43;;
43664;SDS011;29263;48.172;11.484;2022-12-10T14:02:11;37.20;;;19.10;;
43664;SDS011;29263;48.172;11.484;2022-12-10T14:07:54;33.80;;;19.20;;
43664;SDS011;29263;48.172;11.484;2022-12-10T14:12:54;32.20;;;18.23;;
43664;SDS011;29263;48.172;11.484;2022-12-10T14:15:24;34.87;;;19.40;;
43664;SDS011;29263;48.172;11.484;2022-12-10T14:17:54;37.30;;;19.43;;
43664;SDS011;29263;48.172;11.484;2022-12-10T14:20:34;36.23;;;19.17;;
43664;SDS011;29263;48.172;11.484;2022-12-10T14:23:05;33.00;;;20.00;;
43664;SDS011;29263;48.172;11.484;2022-12-10T14:26:09;35.83;;;18.77;;
43664;SDS011;29263;48.172;11.484;2022-12-10T14:28:40;37.27;;;19.07;;
43664;SDS011;29263;48.172;11.484;2022-12-10T14:31:12;32.90;;;19.00;;
43664;SDS011;29263;48.172;11.484;2022-12-10T14:33:49;33.13;;;18.87;;
43664;SDS011;29263;48.172;11.484;2022-12-10T14:39:27;33.70;;;18.33;;
43664;SDS011;29263;48.172;11.484;2022-12-10T14:41:58;33.00;;;19.47;;
43664;SDS011;29263;48.172;11.484;2022-12-10T14:44:26;39.47;;;21.53;;
43664;SDS011;29263;48.172;11.484;2022-12-10T14:47:02;42.27;;;22.53;;
43664;SDS011;29263;48.172;11.484;2022-12-10T14:49:42;37.30;;;20.80;;
43664;SDS011;29263;48.172;11.484;2022-12-10T14:52:17;33.78;;;19.45;;
43664;SDS011;29263;48.172;11.484;2022-12-10T14:54:45;36.80;;;20.90;;
43664;SDS011;29263;48.172;11.484;2022-12-10T14:57:31;33.97;;;19.40;;
43664;SDS011;29263;48.172;11.484;2022-12-10T15:00:07;32.90;;;18.33;;
43664;SDS011;29263;48.172;11.484;2022-12-10T15:02:43;35.30;;;19.17;;
43664;SDS011;29263;48.172;11.484;2022-12-10T15:05:13;34.50;;;18.90;;
43664;SDS011;29263;48.172;11.484;2022-12-10T15:07:48;35.00;;;20.23;;
43664;SDS011;29263;48.172;11.484;2022-12-10T15:10:39;35.23;;;19.70;;
43664;SDS011;29263;48.172;11.484;2022-12-10T15:13:07;36.33;;;19.80;;
43664;SDS011;29263;48.172;11.484;2022-12-10T15:15:43;32.00;;;18.30;;
43664;SDS011;29263;48.172;11.484;2022-12-10T15:18:16;34.93;;;20.33;;
43664;SDS011;29263;48.172;11.484;2022-12-10T15:26:44;33.17;;;18.60;;
43664;SDS011;29263;48.172;11.484;2022-12-10T15:28:46;35.43;;;19.33;;
43664;SDS011;29263;48.172;11.484;2022-12-10T15:33:54;34.37;;;18.23;;
43664;SDS011;29263;48.172;11.484;2022-12-10T15:36:40;31.07;;;17.63;;
43664;SDS011;29263;48.172;11.484;2022-12-10T15:39:43;30.67;;;16.97;;
43664;SDS011;29263;48.172;11.484;2022-12-10T15:42:08;31.40;;;17.50;;
43664;SDS011;29263;48.172;11.484;2022-12-10T15:44:54;28.03;;;15.50;;
43664;SDS011;29263;48.172;11.484;2022-12-10T15:47:25;29.63;;;16.70;;
43664;SDS011;29263;48.172;11.484;2022-12-10T15:54:45;26.97;;;15.63;;
43664;SDS011;29263;48.172;11.484;2022-12-10T15:59:40;25.63;;;14.53;;
43664;SDS011;29263;48.172;11.484;2022-12-10T16:05:02;24.50;;;14.47;;
43664;SDS011;29263;48.172;11.484;2022-12-10T16:07:48;29.83;;;15.97;;
43664;SDS011;29263;48.172;11.484;2022-12-10T16:10:17;26.87;;;15.20;;
43664;SDS011;29263;48.172;11.484;2022-12-10T16:12:45;30.77;;;15.13;;
43664;SDS011;29263;48.172;11.484;2022-12-10T16:15:17;23.75;;;14.38;;
43664;SDS011;29263;48.172;11.484;2022-12-10T16:17:45;27.47;;;15.17;;
43664;SDS011;29263;48.172;11.484;2022-12-10T16:20:17;27.97;;;14.77;;
43664;SDS011;29263;48.172;11.484;2022-12-10T16:22:46;28.07;;;14.33;;
43664;SDS011;29263;48.172;11.484;2022-12-10T16:25:12;24.60;;;13.50;;
43664;SDS011;29263;48.172;11.484;2022-12-10T16:27:39;25.80;;;14.73;;
43664;SDS011;29263;48.172;11.484;2022-12-10T16:32:58;24.27;;;14.17;;
43664;SDS011;29263;48.172;11.484;2022-12-10T16:35:23;26.17;;;15.17;;
43664;SDS011;29263;48.172;11.484;2022-12-10T16:37:49;29.13;;;15.67;;
43664;SDS011;29263;48.172;11.484;2022-12-10T16:42:47;30.27;;;15.90;;
43664;SDS011;29263;48.172;11.484;2022-12-10T16:47:40;28.40;;;14.70;;
43664;SDS011;29263;48.172;11.484;2022-12-10T16:50:06;27.10;;;15.90;;
43664;SDS011;29263;48.172;11.484;2022-12-10T16:52:32;31.60;;;16.57;;
43664;SDS011;29263;48.172;11.484;2022-12-10T16:54:58;33.80;;;18.43;;
43664;SDS011;29263;48.172;11.484;2022-12-10T16:57:24;42.63;;;22.10;;